Time;durP1;ratioP1;P1;durP2;ratioP2;P2;SDS_P1;SDS_P2;PMS_P1;PMS_P2;Temp;Humidity;BMP_temperature;BMP_pressure;BME280_temperature;BME280_humidity;BME280_pressure;Samples;Min_cycle;Max_cycle;Signal;HPM_P1;HPM_P2
2021/10/25 00:00:45;;;;;;;16.30;14.60;;;;;21.80;100885.00;;;;2091403;28;20257;-50
2021/10/25 00:01:45;;;;;;;16.53;14.70;;;;;21.80;100882.00;;;;2084179;28;20228;-52
2021/10/25 00:02:46;;;;;;;16.37;14.70;;;;;21.80;100880.00;;;;2086560;28;20217;-52
2021/10/25 00:03:46;;;;;;;14.93;13.33;;;;;21.80;100884.00;;;;2087089;28;20220;-52
2021/10/25 00:04:46;;;;;;;15.30;13.70;;;;;21.80;100881.00;;;;2087433;28;20570;-51
2021/10/25 00:05:47;;;;;;;15.13;13.53;;;;;21.80;100883.00;;;;2087627;28;20275;-50
2021/10/25 00:06:47;;;;;;;15.50;13.90;;;;;21.80;100887.00;;;;2086750;28;20208;-50
2021/10/25 00:07:48;;;;;;;15.37;12.80;;;;;21.80;100887.00;;;;2086885;28;20212;-51
2021/10/25 00:08:48;;;;;;;15.70;12.20;;;;;21.80;100892.00;;;;2086494;28;20209;-52
2021/10/25 00:09:49;;;;;;;14.27;12.77;;;;;21.80;100888.00;;;;2086743;28;20266;-51
2021/10/25 00:10:49;;;;;;;12.50;11.17;;;;;21.80;100894.00;;;;2087592;28;20811;-51
2021/10/25 00:11:50;;;;;;;14.10;12.60;;;;;21.80;100891.00;;;;2086636;28;20306;-51
2021/10/25 00:12:50;;;;;;;14.40;13.00;;;;;21.80;100882.00;;;;2086441;28;20451;-51
2021/10/25 00:13:50;;;;;;;14.13;12.63;;;;;21.80;100884.00;;;;2089408;28;20220;-52
2021/10/25 00:14:51;;;;;;;14.00;12.70;;;;;21.80;100881.00;;;;2092157;28;20208;-50
2021/10/25 00:15:51;;;;;;;12.87;11.67;;;;;21.80;100883.00;;;;2089999;28;20224;-51
2021/10/25 00:16:52;;;;;;;14.30;12.70;;;;;21.80;100882.00;;;;2079838;28;20208;-50
2021/10/25 00:17:52;;;;;;;13.40;12.10;;;;;21.70;100878.00;;;;2086459;28;20215;-52
2021/10/25 00:18:52;;;;;;;13.43;12.03;;;;;21.80;100879.00;;;;2086148;28;20212;-51
2021/10/25 00:19:53;;;;;;;14.10;12.60;;;;;21.70;100879.00;;;;2086828;28;20644;-51
2021/10/25 00:20:53;;;;;;;12.73;11.53;;;;;21.80;100875.00;;;;2086757;28;20212;-51
2021/10/25 00:21:53;;;;;;;13.10;11.50;;;;;21.70;100872.00;;;;2086795;28;20659;-51
2021/10/25 00:22:55;;;;;;;12.77;11.47;;;;;21.70;100872.00;;;;2086569;28;21614;-52
2021/10/25 00:23:55;;;;;;;12.07;10.82;;;;;21.70;100878.00;;;;2089907;28;20553;-51
2021/10/25 00:24:56;;;;;;;12.00;10.70;;;;;21.70;100872.00;;;;2094537;28;20256;-51
2021/10/25 00:25:56;;;;;;;13.03;11.80;;;;;21.70;100874.00;;;;2095646;28;20703;-52
2021/10/25 00:26:57;;;;;;;12.67;11.37;;;;;21.70;100872.00;;;;2092846;28;20743;-52
2021/10/25 00:27:57;;;;;;;11.93;10.60;;;;;21.70;100865.00;;;;2095030;28;20462;-51
2021/10/25 00:28:58;;;;;;;11.70;10.50;;;;;21.70;100864.00;;;;2094492;28;20224;-52
2021/10/25 00:29:58;;;;;;;11.37;9.73;;;;;21.70;100867.00;;;;2095290;28;20301;-51
2021/10/25 00:30:59;;;;;;;11.87;10.67;;;;;21.70;100864.00;;;;2092669;28;20212;-51
2021/10/25 00:31:59;;;;;;;11.10;9.90;;;;;21.70;100863.00;;;;2089898;28;20618;-51
2021/10/25 00:32:59;;;;;;;11.43;10.27;;;;;21.70;100860.00;;;;2094823;28;20223;-51
2021/10/25 00:34:00;;;;;;;11.80;10.70;;;;;21.70;100864.00;;;;2095015;28;20219;-50
2021/10/25 00:35:00;;;;;;;11.27;10.13;;;;;21.70;100862.00;;;;2095093;28;20696;-50
2021/10/25 00:36:00;;;;;;;11.33;10.17;;;;;21.70;100863.00;;;;2095040;28;20243;-51
2021/10/25 00:37:02;;;;;;;12.23;10.40;;;;;21.70;100861.00;;;;2095372;28;20215;-51
2021/10/25 00:38:03;;;;;;;11.55;10.40;;;;;21.70;100862.00;;;;2095003;28;20216;-51
2021/10/25 00:39:04;;;;;;;10.47;9.40;;;;;21.70;100859.00;;;;2094436;28;20771;-52
2021/10/25 00:40:05;;;;;;;10.17;9.20;;;;;21.70;100866.00;;;;2095229;28;20291;-52
2021/10/25 00:41:06;;;;;;;10.60;9.50;;;;;21.70;100860.00;;;;2096128;28;20457;-51
2021/10/25 00:42:06;;;;;;;11.87;9.90;;;;;21.70;100861.00;;;;2090082;28;20491;-51
2021/10/25 00:43:07;;;;;;;11.17;10.00;;;;;21.70;100861.00;;;;2105051;28;20223;-51
2021/10/25 00:44:07;;;;;;;10.33;9.33;;;;;21.70;100862.00;;;;2093601;28;20212;-52
2021/10/25 00:45:08;;;;;;;11.00;9.80;;;;;21.70;100867.00;;;;2092189;28;20212;-51
2021/10/25 00:46:10;;;;;;;10.10;8.77;;;;;21.70;100861.00;;;;2093330;28;20709;-50
2021/10/25 00:47:10;;;;;;;10.02;9.02;;;;;21.70;100871.00;;;;2088104;28;20636;-50
2021/10/25 00:48:11;;;;;;;10.30;9.20;;;;;21.70;100866.00;;;;2088650;28;20228;-51
2021/10/25 00:49:11;;;;;;;9.60;8.70;;;;;21.70;100862.00;;;;2087565;28;20209;-51
2021/10/25 00:50:11;;;;;;;9.77;8.87;;;;;21.70;100866.00;;;;2088406;28;20220;-51
2021/10/25 00:51:12;;;;;;;9.50;8.53;;;;;21.70;100863.00;;;;2087815;28;20220;-52
2021/10/25 00:52:13;;;;;;;9.60;8.67;;;;;21.70;100857.00;;;;2088705;28;20212;-51
2021/10/25 00:53:13;;;;;;;10.63;9.00;;;;;21.60;100863.00;;;;2087854;28;20243;-51
2021/10/25 00:54:14;;;;;;;9.67;8.67;;;;;21.60;100860.00;;;;2087723;28;20482;-50
2021/10/25 00:55:14;;;;;;;10.20;9.10;;;;;21.60;100855.00;;;;2088508;28;20274;-51
2021/10/25 00:56:15;;;;;;;10.30;8.90;;;;;21.60;100862.00;;;;2087626;28;20223;-49
2021/10/25 00:57:15;;;;;;;9.53;8.60;;;;;21.60;100853.00;;;;2085266;28;20229;-51
2021/10/25 00:58:16;;;;;;;8.70;7.90;;;;;21.60;100858.00;;;;2088765;28;20224;-52
2021/10/25 00:59:16;;;;;;;9.17;8.27;;;;;21.60;100860.00;;;;2087629;28;20682;-51
2021/10/25 01:00:17;;;;;;;10.87;8.80;;;;;21.60;100866.00;;;;2088264;28;20459;-51
2021/10/25 01:01:17;;;;;;;8.20;7.40;;;;;21.60;100864.00;;;;2088329;28;20212;-51
2021/10/25 01:02:17;;;;;;;8.67;7.87;;;;;21.60;100872.00;;;;2085684;28;20220;-51
2021/10/25 01:03:18;;;;;;;8.67;7.80;;;;;21.60;100867.00;;;;2089923;28;20991;-51
2021/10/25 01:04:20;;;;;;;9.30;8.40;;;;;21.60;100866.00;;;;2095483;28;20231;-51
2021/10/25 01:05:20;;;;;;;8.50;7.70;;;;;21.60;100860.00;;;;2097296;28;20306;-51
2021/10/25 01:06:21;;;;;;;8.40;7.60;;;;;21.60;100859.00;;;;2097059;28;20291;-50
2021/10/25 01:07:21;;;;;;;8.50;7.70;;;;;21.60;100854.00;;;;2096290;28;20209;-51
2021/10/25 01:08:22;;;;;;;8.83;8.03;;;;;21.60;100861.00;;;;2096471;28;20270;-49
2021/10/25 01:09:22;;;;;;;8.63;7.30;;;;;21.60;100860.00;;;;2095559;28;20271;-51
2021/10/25 01:10:23;;;;;;;8.07;7.27;;;;;21.60;100856.00;;;;2095947;28;21085;-51
2021/10/25 01:11:25;;;;;;;7.20;6.50;;;;;21.60;100863.00;;;;2096801;28;20258;-51
2021/10/25 01:12:26;;;;;;;7.78;7.00;;;;;21.60;100853.00;;;;2096559;28;20212;-50
2021/10/25 01:13:26;;;;;;;8.00;7.20;;;;;21.60;100853.00;;;;2095882;28;20232;-52
2021/10/25 01:14:27;;;;;;;8.17;7.37;;;;;21.60;100855.00;;;;2091007;28;20458;-51
2021/10/25 01:15:27;;;;;;;7.83;7.03;;;;;21.60;100852.00;;;;2091182;28;20213;-51
2021/10/25 01:16:27;;;;;;;8.30;7.50;;;;;21.60;100858.00;;;;2091104;28;20209;-50
2021/10/25 01:17:28;;;;;;;7.23;6.53;;;;;21.60;100863.00;;;;2091315;28;20303;-51
2021/10/25 01:18:29;;;;;;;8.88;7.53;;;;;21.60;100855.00;;;;2096896;28;20208;-51
2021/10/25 01:19:30;;;;;;;7.50;6.80;;;;;21.50;100846.00;;;;2096601;28;20584;-52
2021/10/25 01:20:30;;;;;;;7.03;6.32;;;;;21.60;100855.00;;;;2097095;28;20204;-51
2021/10/25 01:21:31;;;;;;;7.67;6.97;;;;;21.60;100848.00;;;;2097090;28;20299;-51
2021/10/25 01:22:31;;;;;;;7.03;6.40;;;;;21.60;100855.00;;;;2094125;28;20230;-50
2021/10/25 01:23:32;;;;;;;7.13;6.50;;;;;21.60;100860.00;;;;2096345;28;20211;-50
2021/10/25 01:24:32;;;;;;;7.63;6.90;;;;;21.60;100857.00;;;;2092205;28;20308;-50
2021/10/25 01:25:32;;;;;;;7.43;6.73;;;;;21.50;100858.00;;;;2089098;28;20248;-52
2021/10/25 01:26:33;;;;;;;7.43;6.70;;;;;21.50;100857.00;;;;2096362;28;20215;-51
2021/10/25 01:27:33;;;;;;;7.37;6.60;;;;;21.50;100849.00;;;;2095063;28;20223;-50
2021/10/25 01:28:34;;;;;;;7.23;6.53;;;;;21.60;100860.00;;;;2096279;28;20242;-51
2021/10/25 01:29:35;;;;;;;7.00;6.30;;;;;21.50;100865.00;;;;2095893;28;20221;-52
2021/10/25 01:30:35;;;;;;;7.17;6.47;;;;;21.50;100855.00;;;;2095826;28;20220;-49
2021/10/25 01:31:36;;;;;;;7.40;6.70;;;;;21.50;100856.00;;;;2095872;28;20587;-51
2021/10/25 01:32:36;;;;;;;7.03;6.33;;;;;21.50;100856.00;;;;2096235;28;20273;-51
2021/10/25 01:33:39;;;;;;;6.90;6.20;;;;;21.50;100864.00;;;;2096111;28;20584;-51
2021/10/25 01:34:40;;;;;;;6.57;6.00;;;;;21.50;100860.00;;;;2095674;28;20220;-51
2021/10/25 01:35:40;;;;;;;6.43;5.57;;;;;21.50;100862.00;;;;2096320;28;20304;-51
2021/10/25 01:36:41;;;;;;;6.50;5.87;;;;;21.50;100849.00;;;;2089812;28;20859;-52
2021/10/25 01:37:42;;;;;;;6.90;6.23;;;;;21.50;100857.00;;;;2088307;28;20205;-51
2021/10/25 01:38:42;;;;;;;6.87;5.90;;;;;21.50;100861.00;;;;2087771;28;20574;-52
2021/10/25 01:39:43;;;;;;;7.40;6.27;;;;;21.50;100871.00;;;;2091433;28;20240;-51
2021/10/25 01:40:43;;;;;;;6.67;6.07;;;;;21.50;100856.00;;;;2096212;28;20243;-51
2021/10/25 01:41:43;;;;;;;6.63;5.67;;;;;21.50;100854.00;;;;2091947;28;20215;-52
2021/10/25 01:42:44;;;;;;;8.37;5.73;;;;;21.50;100851.00;;;;2094940;28;20262;-50
2021/10/25 01:43:44;;;;;;;6.13;5.53;;;;;21.50;100853.00;;;;2094275;28;20212;-50
2021/10/25 01:44:44;;;;;;;6.73;6.03;;;;;21.50;100857.00;;;;2090489;28;20204;-51
2021/10/25 01:45:45;;;;;;;6.60;6.00;;;;;21.50;100856.00;;;;2089654;28;20205;-51
2021/10/25 01:46:46;;;;;;;6.53;5.93;;;;;21.50;100856.00;;;;2091728;28;20228;-51
2021/10/25 01:47:46;;;;;;;6.37;5.30;;;;;21.50;100856.00;;;;2087997;28;21251;-51
2021/10/25 01:48:46;;;;;;;5.80;5.20;;;;;21.50;100854.00;;;;2087947;28;20585;-51
2021/10/25 01:49:48;;;;;;;6.60;5.90;;;;;21.50;100850.00;;;;2087691;28;20213;-51
2021/10/25 01:50:48;;;;;;;5.70;5.20;;;;;21.50;100850.00;;;;2087612;28;20686;-50
2021/10/25 01:51:49;;;;;;;6.30;5.80;;;;;21.50;100848.00;;;;2082535;28;20208;-50
2021/10/25 01:52:50;;;;;;;7.17;6.57;;;;;21.50;100849.00;;;;2096159;28;20350;-53
2021/10/25 01:53:50;;;;;;;5.37;4.87;;;;;21.50;100849.00;;;;2091298;28;20287;-51
2021/10/25 01:54:50;;;;;;;6.50;5.90;;;;;21.50;100834.00;;;;2088567;28;20463;-50
2021/10/25 01:55:55;;;;;;;6.33;5.73;;;;;21.50;100839.00;;;;2087802;28;20599;-49
2021/10/25 01:56:56;;;;;;;5.78;5.25;;;;;21.50;100830.00;;;;2092658;28;20208;-52
2021/10/25 01:57:56;;;;;;;5.80;5.23;;;;;21.40;100845.00;;;;2097015;28;20609;-51
2021/10/25 01:58:57;;;;;;;5.50;5.00;;;;;21.50;100838.00;;;;2096484;28;20215;-51
2021/10/25 01:59:58;;;;;;;5.47;5.00;;;;;21.40;100836.00;;;;2096771;28;20208;-51
2021/10/25 02:00:58;;;;;;;6.18;5.57;;;;;21.50;100830.00;;;;2096753;28;20882;-51
2021/10/25 02:01:59;;;;;;;5.90;5.40;;;;;21.40;100847.00;;;;2094288;28;20212;-50
2021/10/25 02:02:59;;;;;;;5.33;4.83;;;;;21.40;100833.00;;;;2096631;28;20640;-49
2021/10/25 02:04:02;;;;;;;5.13;4.73;;;;;21.40;100834.00;;;;2092558;28;20585;-51
2021/10/25 02:05:02;;;;;;;5.70;5.20;;;;;21.50;100824.00;;;;2088601;28;20577;-51
2021/10/25 02:06:03;;;;;;;5.30;4.60;;;;;21.50;100828.00;;;;2088528;28;20299;-51
2021/10/25 02:07:03;;;;;;;5.77;5.23;;;;;21.40;100819.00;;;;2085376;28;20237;-51
2021/10/25 02:08:04;;;;;;;5.77;5.23;;;;;21.40;100828.00;;;;2088045;28;20217;-51
2021/10/25 02:09:05;;;;;;;5.00;4.60;;;;;21.40;100825.00;;;;2087620;28;20358;-51
2021/10/25 02:10:06;;;;;;;5.30;4.80;;;;;21.40;100827.00;;;;2087185;28;20221;-51
2021/10/25 02:11:07;;;;;;;5.28;4.78;;;;;21.40;100830.00;;;;2087812;28;20223;-50
2021/10/25 02:12:07;;;;;;;4.90;4.40;;;;;21.40;100821.00;;;;2088470;28;20234;-50
2021/10/25 02:13:11;;;;;;;5.40;4.90;;;;;21.40;100823.00;;;;2096050;28;20458;-51
2021/10/25 02:14:12;;;;;;;5.68;4.70;;;;;21.40;100825.00;;;;2090985;28;20229;-50
2021/10/25 02:15:12;;;;;;;4.87;4.43;;;;;21.40;100827.00;;;;2090549;28;20262;-51
2021/10/25 02:16:13;;;;;;;4.83;4.40;;;;;21.40;100820.00;;;;2088922;28;20568;-51
2021/10/25 02:17:13;;;;;;;4.77;4.37;;;;;21.40;100819.00;;;;2082018;28;20219;-51
2021/10/25 02:18:13;;;;;;;5.33;4.83;;;;;21.40;100822.00;;;;2090463;28;20477;-51
2021/10/25 02:19:14;;;;;;;5.17;4.67;;;;;21.40;100820.00;;;;2095498;28;20223;-50
2021/10/25 02:20:15;;;;;;;5.20;4.17;;;;;21.40;100814.00;;;;2096073;28;20281;-50
2021/10/25 02:21:15;;;;;;;5.53;4.63;;;;;21.40;100812.00;;;;2096078;28;20705;-51
2021/10/25 02:22:15;;;;;;;4.70;4.30;;;;;21.40;100820.00;;;;2093431;28;20557;-51
2021/10/25 02:23:16;;;;;;;5.53;5.03;;;;;21.40;100820.00;;;;2095997;28;20303;-51
2021/10/25 02:24:16;;;;;;;5.17;4.13;;;;;21.40;100818.00;;;;2093457;28;20223;-51
2021/10/25 02:25:17;;;;;;;5.00;4.50;;;;;21.40;100814.00;;;;2087644;28;20209;-51
2021/10/25 02:26:17;;;;;;;4.90;4.50;;;;;21.40;100814.00;;;;2089394;28;20277;-51
2021/10/25 02:27:17;;;;;;;4.97;4.47;;;;;21.40;100811.00;;;;2096337;28;20266;-52
2021/10/25 02:28:18;;;;;;;4.87;4.40;;;;;21.40;100808.00;;;;2094169;28;20449;-54
2021/10/25 02:29:18;;;;;;;4.90;4.40;;;;;21.40;100815.00;;;;2095057;28;20223;-53
2021/10/25 02:30:19;;;;;;;4.70;4.30;;;;;21.40;100810.00;;;;2095824;28;20299;-53
2021/10/25 02:31:20;;;;;;;4.10;3.80;;;;;21.40;100812.00;;;;2096006;28;20265;-51
2021/10/25 02:32:20;;;;;;;5.30;4.00;;;;;21.40;100816.00;;;;2090569;28;20224;-51
2021/10/25 02:33:21;;;;;;;5.13;3.80;;;;;21.40;100809.00;;;;2096049;28;20223;-51
2021/10/25 02:34:21;;;;;;;4.20;3.80;;;;;21.40;100807.00;;;;2095999;28;20303;-51
2021/10/25 02:35:22;;;;;;;4.23;3.83;;;;;21.40;100802.00;;;;2095400;28;20216;-50
2021/10/25 02:36:22;;;;;;;4.83;4.43;;;;;21.40;100807.00;;;;2095780;28;20235;-51
2021/10/25 02:37:23;;;;;;;6.90;4.53;;;;;21.40;100804.00;;;;2092305;28;20216;-51
2021/10/25 02:38:23;;;;;;;4.83;4.43;;;;;21.40;100799.00;;;;2095851;28;20681;-51
2021/10/25 02:39:24;;;;;;;5.03;4.20;;;;;21.30;100798.00;;;;2095513;28;20208;-50
2021/10/25 02:40:25;;;;;;;4.40;4.00;;;;;21.30;100802.00;;;;2095682;28;20208;-51
2021/10/25 02:41:27;;;;;;;4.97;4.03;;;;;21.30;100795.00;;;;2095136;28;20224;-51
2021/10/25 02:42:27;;;;;;;4.15;3.75;;;;;21.30;100804.00;;;;2093205;28;20278;-51
2021/10/25 02:43:27;;;;;;;6.00;4.60;;;;;21.30;100797.00;;;;2095828;28;20215;-51
2021/10/25 02:44:28;;;;;;;4.70;4.30;;;;;21.30;100803.00;;;;2090572;28;20204;-51
2021/10/25 02:45:30;;;;;;;5.27;4.30;;;;;21.40;100792.00;;;;2089786;28;20787;-50
2021/10/25 02:46:30;;;;;;;4.90;4.38;;;;;21.30;100797.00;;;;2089163;28;20204;-49
2021/10/25 02:47:31;;;;;;;4.70;4.07;;;;;21.30;100795.00;;;;2087766;28;20708;-51
2021/10/25 02:48:31;;;;;;;4.10;3.70;;;;;21.40;100798.00;;;;2087188;28;20212;-51
2021/10/25 02:49:31;;;;;;;4.30;3.90;;;;;21.30;100799.00;;;;2087219;28;20217;-50
2021/10/25 02:50:32;;;;;;;4.33;3.60;;;;;21.30;100797.00;;;;2087617;28;20209;-51
2021/10/25 02:51:32;;;;;;;3.87;3.47;;;;;21.40;100805.00;;;;2087944;28;20213;-50
2021/10/25 02:52:32;;;;;;;4.50;4.10;;;;;21.40;100794.00;;;;2087797;28;20689;-50
2021/10/25 02:53:33;;;;;;;3.60;3.30;;;;;21.30;100798.00;;;;2087637;28;20225;-51
2021/10/25 02:54:33;;;;;;;4.00;3.40;;;;;21.30;100793.00;;;;2087656;28;20217;-51
2021/10/25 02:55:34;;;;;;;4.70;3.93;;;;;21.30;100796.00;;;;2087317;28;20240;-51
2021/10/25 02:56:34;;;;;;;3.80;3.37;;;;;21.30;100791.00;;;;2087812;28;20292;-51
2021/10/25 02:57:35;;;;;;;3.83;3.53;;;;;21.30;100799.00;;;;2088231;28;20271;-51
2021/10/25 02:58:35;;;;;;;4.23;3.77;;;;;21.30;100797.00;;;;2087920;28;20227;-51
2021/10/25 02:59:35;;;;;;;3.83;3.53;;;;;21.30;100797.00;;;;2087915;28;20282;-50
2021/10/25 03:00:36;;;;;;;4.13;3.73;;;;;21.30;100786.00;;;;2087219;28;20262;-52
2021/10/25 03:01:37;;;;;;;4.70;4.30;;;;;21.30;100797.00;;;;2086982;28;20215;-51
2021/10/25 03:02:37;;;;;;;4.23;3.83;;;;;21.30;100791.00;;;;2100612;28;20219;-51
2021/10/25 03:03:38;;;;;;;3.90;3.30;;;;;21.30;100795.00;;;;2096401;28;20474;-51
2021/10/25 03:04:38;;;;;;;4.47;4.07;;;;;21.30;100795.00;;;;2093639;28;20208;-52
2021/10/25 03:05:39;;;;;;;3.80;3.50;;;;;21.30;100793.00;;;;2087638;28;20639;-51
2021/10/25 03:06:39;;;;;;;4.03;3.63;;;;;21.30;100788.00;;;;2087589;28;20209;-50
2021/10/25 03:07:40;;;;;;;4.20;3.40;;;;;21.30;100789.00;;;;2087475;28;20459;-50
2021/10/25 03:08:40;;;;;;;3.73;3.43;;;;;21.30;100790.00;;;;2087570;28;20201;-51
2021/10/25 03:09:41;;;;;;;4.00;3.60;;;;;21.30;100789.00;;;;2087081;28;20563;-50
2021/10/25 03:10:41;;;;;;;3.97;3.50;;;;;21.30;100797.00;;;;2087606;28;20287;-51
2021/10/25 03:11:41;;;;;;;3.73;3.43;;;;;21.30;100790.00;;;;2087054;28;20220;-51
2021/10/25 03:12:42;;;;;;;3.80;3.17;;;;;21.30;100790.00;;;;2085475;28;20213;-50
2021/10/25 03:13:42;;;;;;;4.03;3.63;;;;;21.30;100791.00;;;;2088783;28;20638;-51
2021/10/25 03:14:43;;;;;;;3.70;3.23;;;;;21.30;100791.00;;;;2092057;28;20208;-50
2021/10/25 03:15:44;;;;;;;3.87;3.57;;;;;21.30;100790.00;;;;2089523;28;20228;-50
2021/10/25 03:16:44;;;;;;;3.83;3.37;;;;;21.30;100789.00;;;;2089471;28;20447;-51
2021/10/25 03:17:45;;;;;;;3.60;3.30;;;;;21.30;100784.00;;;;2085432;28;20212;-51
2021/10/25 03:18:45;;;;;;;3.63;3.27;;;;;21.30;100787.00;;;;2086983;28;20220;-50
2021/10/25 03:19:46;;;;;;;3.87;3.47;;;;;21.20;100788.00;;;;2086822;28;20979;-51
2021/10/25 03:20:48;;;;;;;4.05;3.70;;;;;21.30;100784.00;;;;2087843;28;20277;-51
2021/10/25 03:21:49;;;;;;;3.85;3.45;;;;;21.30;100785.00;;;;2087934;28;20258;-50
2021/10/25 03:22:49;;;;;;;3.92;3.50;;;;;21.30;100786.00;;;;2091628;28;20208;-50
2021/10/25 03:23:50;;;;;;;3.67;3.27;;;;;21.20;100790.00;;;;2095362;28;20255;-50
2021/10/25 03:24:50;;;;;;;3.77;3.47;;;;;21.20;100753.00;;;;2094633;28;20212;-51
2021/10/25 03:25:50;;;;;;;4.70;3.50;;;;;21.20;100781.00;;;;2095641;28;20213;-50
2021/10/25 03:26:51;;;;;;;4.17;3.30;;;;;21.20;100792.00;;;;2095637;28;20208;-51
2021/10/25 03:27:52;;;;;;;3.60;3.30;;;;;21.20;100789.00;;;;2093132;28;20212;-51
2021/10/25 03:28:53;;;;;;;3.30;3.00;;;;;21.20;100789.00;;;;2095203;28;20212;-51
2021/10/25 03:29:53;;;;;;;3.47;3.17;;;;;21.20;100794.00;;;;2094163;28;20224;-51
2021/10/25 03:30:54;;;;;;;3.57;3.23;;;;;21.30;100781.00;;;;2095140;28;20231;-50
2021/10/25 03:31:54;;;;;;;4.00;3.33;;;;;21.30;100786.00;;;;2096018;28;20212;-51
2021/10/25 03:32:55;;;;;;;3.70;3.40;;;;;21.20;100786.00;;;;2096178;28;20219;-53
2021/10/25 03:33:56;;;;;;;3.20;2.90;;;;;21.20;100789.00;;;;2096138;28;20235;-50
2021/10/25 03:34:56;;;;;;;3.57;3.27;;;;;21.30;100787.00;;;;2093995;28;20590;-51
2021/10/25 03:35:56;;;;;;;3.57;3.20;;;;;21.10;100775.00;;;;2096066;28;20212;-51
2021/10/25 03:36:57;;;;;;;3.63;3.33;;;;;21.20;100779.00;;;;2096095;28;20689;-51
2021/10/25 03:37:58;;;;;;;4.60;3.33;;;;;21.20;100790.00;;;;2095987;28;20212;-50
2021/10/25 03:38:58;;;;;;;3.40;3.10;;;;;21.20;100783.00;;;;2095514;28;20242;-50
2021/10/25 03:40:00;;;;;;;3.50;3.20;;;;;21.20;100783.00;;;;2095893;28;20220;-51
2021/10/25 03:41:01;;;;;;;3.97;3.40;;;;;21.20;100778.00;;;;2095578;28;20697;-51
2021/10/25 03:42:06;;;;;;;3.58;3.25;;;;;21.20;100777.00;;;;2094253;28;20818;-52
2021/10/25 03:43:07;;;;;;;3.40;3.10;;;;;21.20;100779.00;;;;2095307;28;20747;-51
2021/10/25 03:44:54;;;;;;;3.67;3.28;;;;;21.20;100777.00;;;;2089989;28;20246;-49
2021/10/25 03:45:44;;;;;;;3.30;3.00;;;;;21.20;100772.00;;;;2088641;28;20224;-51
2021/10/25 03:46:58;;;;;;;3.13;2.85;;;;;21.20;100781.00;;;;2088556;28;20704;-50
2021/10/25 03:50:18;;;;;;;3.45;2.95;;;;;21.20;100782.00;;;;2094313;28;20216;-50
2021/10/25 03:51:19;;;;;;;3.80;3.40;;;;;21.20;100777.00;;;;2086975;28;20216;-51
2021/10/25 03:52:27;;;;;;;2.80;2.60;;;;;21.20;100780.00;;;;2084665;28;20303;-50
2021/10/25 03:53:57;;;;;;;4.20;3.30;;;;;21.20;100772.00;;;;2090845;28;20217;-51
2021/10/25 03:55:11;;;;;;;3.25;2.95;;;;;21.20;100777.00;;;;2086979;28;20220;-51
2021/10/25 03:56:26;;;;;;;3.10;2.90;;;;;21.20;100773.00;;;;2086847;28;20212;-51
2021/10/25 03:58:49;;;;;;;3.33;2.90;;;;;21.20;100769.00;;;;2081183;28;20308;-51
2021/10/25 04:02:27;;;;;;;2.85;2.30;;;;;21.20;100774.00;;;;2085632;28;20216;-51
2021/10/25 04:03:49;;;;;;;3.22;2.75;;;;;21.10;100772.00;;;;2087607;28;20250;-51
2021/10/25 04:27:15;;;;;;;3.40;3.10;;;;;21.10;100762.00;;;;2095700;28;20685;-50
2021/10/25 04:28:20;;;;;;;2.63;2.42;;;;;21.10;100752.00;;;;2087233;28;20221;-50
2021/10/25 04:29:25;;;;;;;2.40;2.20;;;;;21.10;100754.00;;;;2086824;28;20227;-51
2021/10/25 04:30:29;;;;;;;2.90;2.70;;;;;21.10;100757.00;;;;2087257;28;20213;-51
2021/10/25 04:31:29;;;;;;;3.10;2.78;;;;;21.10;100758.00;;;;2087359;28;20232;-50
2021/10/25 04:32:30;;;;;;;3.23;2.90;;;;;21.10;100759.00;;;;2085049;28;20221;-51
2021/10/25 04:33:30;;;;;;;2.63;2.43;;;;;21.10;100765.00;;;;2087538;28;20231;-51
2021/10/25 04:34:30;;;;;;;2.97;2.67;;;;;21.10;100768.00;;;;2087396;28;20228;-51
2021/10/25 04:35:31;;;;;;;2.43;2.23;;;;;21.10;100767.00;;;;2087395;28;20220;-51
2021/10/25 04:36:31;;;;;;;2.40;2.20;;;;;21.10;100761.00;;;;2087404;28;20228;-50
2021/10/25 04:37:32;;;;;;;2.63;2.37;;;;;21.10;100757.00;;;;2078375;28;20359;-51
2021/10/25 04:38:32;;;;;;;2.93;2.63;;;;;21.10;100754.00;;;;2069776;28;20218;-51
2021/10/25 04:39:33;;;;;;;2.80;2.60;;;;;21.10;100760.00;;;;2085328;28;20228;-51
2021/10/25 04:40:34;;;;;;;3.13;2.20;;;;;21.10;100759.00;;;;2083320;28;20209;-51
2021/10/25 04:41:34;;;;;;;3.03;2.70;;;;;21.10;100762.00;;;;2078084;28;20217;-51
2021/10/25 04:42:34;;;;;;;2.57;2.33;;;;;21.10;100765.00;;;;2078593;28;21076;-51
2021/10/25 04:43:35;;;;;;;2.97;2.77;;;;;21.10;100757.00;;;;2080029;28;20216;-51
2021/10/25 04:44:35;;;;;;;2.40;2.20;;;;;21.10;100755.00;;;;2084935;28;20258;-51
2021/10/25 04:45:36;;;;;;;3.40;2.50;;;;;21.10;100752.00;;;;2080498;28;20577;-51
2021/10/25 04:46:36;;;;;;;2.77;2.50;;;;;21.10;100757.00;;;;2079609;28;20213;-51
2021/10/25 04:47:37;;;;;;;3.00;2.80;;;;;21.10;100753.00;;;;2076139;28;20217;-51
2021/10/25 04:48:38;;;;;;;3.00;2.67;;;;;21.10;100753.00;;;;2078285;28;20213;-51
2021/10/25 04:49:38;;;;;;;2.83;2.50;;;;;21.10;100752.00;;;;2078036;28;20221;-51
2021/10/25 04:50:38;;;;;;;3.40;2.13;;;;;21.10;100752.00;;;;2078651;28;20217;-51
2021/10/25 04:51:39;;;;;;;2.57;2.37;;;;;21.10;100753.00;;;;2078128;28;20254;-51
2021/10/25 04:52:39;;;;;;;2.50;2.30;;;;;21.10;100748.00;;;;2081956;28;20685;-51
2021/10/25 04:53:39;;;;;;;2.97;2.77;;;;;21.10;100745.00;;;;2086866;28;20685;-51
2021/10/25 04:54:40;;;;;;;3.23;2.30;;;;;21.10;100749.00;;;;2086859;28;20307;-51
2021/10/25 04:55:40;;;;;;;2.77;2.57;;;;;21.10;100748.00;;;;2086816;28;20350;-51
2021/10/25 04:56:41;;;;;;;3.83;2.23;;;;;21.10;100752.00;;;;2079443;28;20214;-51
2021/10/25 04:57:41;;;;;;;2.87;2.57;;;;;21.10;100751.00;;;;2078445;28;20698;-51
2021/10/25 04:58:41;;;;;;;2.57;2.37;;;;;21.10;100748.00;;;;2078524;28;20212;-51
2021/10/25 04:59:42;;;;;;;2.63;2.43;;;;;21.10;100753.00;;;;2077943;28;20225;-51
2021/10/25 05:00:43;;;;;;;2.70;2.50;;;;;21.10;100754.00;;;;2079027;28;20237;-51
2021/10/25 05:01:43;;;;;;;2.37;2.17;;;;;21.00;100754.00;;;;2078160;28;20444;-51
2021/10/25 05:02:43;;;;;;;2.50;2.27;;;;;21.00;100755.00;;;;2075771;28;20311;-51
2021/10/25 05:03:44;;;;;;;2.60;2.40;;;;;21.10;100756.00;;;;2078354;28;20216;-51
2021/10/25 05:04:44;;;;;;;2.40;2.03;;;;;21.10;100752.00;;;;2078416;28;20217;-51
2021/10/25 05:05:45;;;;;;;2.57;2.23;;;;;21.10;100750.00;;;;2078472;28;20218;-51
2021/10/25 05:06:45;;;;;;;2.90;2.10;;;;;21.10;100753.00;;;;2078028;28;20217;-51
2021/10/25 05:07:45;;;;;;;2.17;1.97;;;;;21.10;100748.00;;;;2076675;28;20225;-51
2021/10/25 05:08:46;;;;;;;2.47;2.27;;;;;21.10;100752.00;;;;2078635;28;20224;-51
2021/10/25 05:09:46;;;;;;;2.90;2.37;;;;;21.10;100760.00;;;;2078682;28;20229;-52
2021/10/25 05:10:47;;;;;;;2.60;2.40;;;;;21.10;100751.00;;;;2078880;28;20557;-51
2021/10/25 05:11:47;;;;;;;2.93;2.37;;;;;21.20;100747.00;;;;2078923;28;20213;-51
2021/10/25 05:12:47;;;;;;;2.60;2.40;;;;;21.20;100748.00;;;;2076512;28;20293;-51
2021/10/25 05:13:48;;;;;;;2.97;2.67;;;;;21.20;100751.00;;;;2081523;28;20304;-51
2021/10/25 05:14:48;;;;;;;2.30;2.07;;;;;21.20;100752.00;;;;2083071;28;20218;-52
2021/10/25 05:15:49;;;;;;;2.50;2.30;;;;;21.20;100747.00;;;;2079767;28;20300;-53
2021/10/25 05:16:49;;;;;;;3.03;2.23;;;;;21.20;100750.00;;;;2079824;28;20213;-53
2021/10/25 05:17:49;;;;;;;2.40;2.20;;;;;21.30;100752.00;;;;2076563;28;20213;-52
2021/10/25 05:18:50;;;;;;;2.20;2.00;;;;;21.30;100753.00;;;;2078237;28;20297;-53
2021/10/25 05:19:51;;;;;;;2.40;2.20;;;;;21.30;100739.00;;;;2078540;28;20893;-52
2021/10/25 05:20:52;;;;;;;3.08;2.40;;;;;21.30;100744.00;;;;2084778;28;20559;-51
2021/10/25 05:21:52;;;;;;;2.40;2.20;;;;;21.30;100735.00;;;;2080324;28;20293;-51
2021/10/25 05:22:52;;;;;;;2.30;2.10;;;;;21.30;100744.00;;;;2082369;28;20682;-51
2021/10/25 05:23:53;;;;;;;2.23;2.00;;;;;21.30;100743.00;;;;2087179;28;20660;-52
2021/10/25 05:24:53;;;;;;;2.67;2.40;;;;;21.30;100743.00;;;;2087028;28;20213;-52
2021/10/25 05:25:54;;;;;;;2.50;2.30;;;;;21.30;100741.00;;;;2086884;28;20221;-51
2021/10/25 05:26:54;;;;;;;2.60;2.07;;;;;21.30;100738.00;;;;2087251;28;20585;-51
2021/10/25 05:27:54;;;;;;;2.40;2.20;;;;;21.40;100743.00;;;;2078679;28;20273;-51
2021/10/25 05:28:55;;;;;;;2.37;2.17;;;;;21.40;100741.00;;;;2086987;28;20394;-51
2021/10/25 05:29:56;;;;;;;2.57;1.73;;;;;21.40;100745.00;;;;2083225;28;20299;-51